createdAt,value
2022-10-01T00:00:23.593Z,85.07
2022-10-01T00:01:23.628Z,84.97
2022-10-01T00:02:23.580Z,84.97
2022-10-01T00:03:23.569Z,85.31
2022-10-01T00:04:23.593Z,85.31
2022-10-01T00:05:23.551Z,85.42
2022-10-01T00:06:23.524Z,85.11
2022-10-01T00:07:23.536Z,84.84
2022-10-01T00:08:23.489Z,84.74
2022-10-01T00:09:23.501Z,84.84
2022-10-01T00:10:23.500Z,85.05
2022-10-01T00:11:23.485Z,85.25
2022-10-01T00:12:23.454Z,85.66
2022-10-01T00:13:23.464Z,85.97
2022-10-01T00:14:23.456Z,86.07
2022-10-01T00:15:23.455Z,86.07
2022-10-01T00:16:23.471Z,86.79
2022-10-01T00:17:23.395Z,87.30
2022-10-01T00:18:23.385Z,88.23
2022-10-01T00:19:23.387Z,87.71
2022-10-01T00:20:23.404Z,88.23
2022-10-01T00:21:23.369Z,87.51
2022-10-01T00:22:23.361Z,87.92
2022-10-01T00:23:23.384Z,87.57
2022-10-01T00:24:23.370Z,87.67
2022-10-01T00:25:23.337Z,86.44
2022-10-01T00:26:23.336Z,86.75
2022-10-01T00:27:23.360Z,85.83
2022-10-01T00:28:23.442Z,85.11
2022-10-01T00:29:23.279Z,84.50
2022-10-01T00:30:23.261Z,84.50
2022-10-01T00:31:23.365Z,85.52
2022-10-01T00:32:23.284Z,87.26
2022-10-01T00:33:23.272Z,87.77
2022-10-01T00:34:23.242Z,86.34
2022-10-01T00:35:23.243Z,86.04
2022-10-01T00:36:23.206Z,86.44
2022-10-01T00:37:23.225Z,86.44
2022-10-01T00:38:23.192Z,85.42
2022-10-01T00:39:23.180Z,87.67
2022-10-01T00:40:23.214Z,86.85
2022-10-01T00:41:23.261Z,85.38
2022-10-01T00:42:23.150Z,84.77
2022-10-01T00:43:23.140Z,84.97
2022-10-01T00:44:23.126Z,84.60
2022-10-01T00:45:23.114Z,83.98
2022-10-01T00:46:23.182Z,84.19
2022-10-01T00:47:23.102Z,84.80
2022-10-01T00:48:23.112Z,85.93
2022-10-01T00:49:23.098Z,85.63
2022-10-01T00:50:23.080Z,84.29
2022-10-01T00:51:23.054Z,84.09
2022-10-01T00:52:23.085Z,84.39
2022-10-01T00:53:23.044Z,83.98
2022-10-01T00:54:23.071Z,84.60
2022-10-01T00:55:23.021Z,84.50
2022-10-01T00:56:23.025Z,85.01
2022-10-01T00:57:23.021Z,85.52
2022-10-01T00:58:23.014Z,85.63
2022-10-01T00:59:23.011Z,86.14
2022-10-01T01:00:22.992Z,85.11
2022-10-01T01:01:22.983Z,84.19
2022-10-01T01:02:22.988Z,84.29
2022-10-01T01:03:22.965Z,84.19
2022-10-01T01:04:22.962Z,84.09
2022-10-01T01:05:22.973Z,83.88
2022-10-01T01:06:22.895Z,84.50
2022-10-01T01:07:22.906Z,84.80
2022-10-01T01:08:22.903Z,85.11
2022-10-01T01:09:22.904Z,85.31
2022-10-01T01:10:22.893Z,85.66
2022-10-01T01:11:22.868Z,85.97
2022-10-01T01:12:22.861Z,85.87
2022-10-01T01:13:22.874Z,85.87
2022-10-01T01:14:22.845Z,86.18
2022-10-01T01:15:22.835Z,87.71
2022-10-01T01:16:22.889Z,86.99
2022-10-01T01:17:22.836Z,87.82
2022-10-01T01:18:22.790Z,87.20
2022-10-01T01:19:22.788Z,87.41
2022-10-01T01:20:22.770Z,86.44
2022-10-01T01:21:22.758Z,85.72
2022-10-01T01:22:22.779Z,85.52
2022-10-01T01:23:22.793Z,85.22
2022-10-01T01:24:22.715Z,85.11
2022-10-01T01:25:22.715Z,85.01
2022-10-01T01:26:22.709Z,84.80
2022-10-01T01:27:22.706Z,84.64
2022-10-01T01:28:22.771Z,84.74
2022-10-01T01:29:22.700Z,85.36
2022-10-01T01:30:22.694Z,85.56
2022-10-01T01:31:22.776Z,84.84
2022-10-01T01:32:22.665Z,85.87
2022-10-01T01:33:22.660Z,86.96
2022-10-01T01:34:22.655Z,88.29
2022-10-01T01:35:22.625Z,86.65
2022-10-01T01:36:22.661Z,86.55
2022-10-01T01:37:22.653Z,86.75
2022-10-01T01:38:22.600Z,86.51
2022-10-01T01:39:22.600Z,86.14
2022-10-01T01:40:22.566Z,86.24
2022-10-01T01:41:22.568Z,85.83
2022-10-01T01:42:22.539Z,85.93
2022-10-01T01:43:22.559Z,85.72
2022-10-01T01:44:22.514Z,85.69
2022-10-01T01:45:22.536Z,86.71
2022-10-01T01:46:22.555Z,87.32
2022-10-01T01:47:22.526Z,86.40
2022-10-01T01:48:22.500Z,85.79
2022-10-01T01:49:22.492Z,85.99
2022-10-01T01:50:22.467Z,85.99
2022-10-01T01:51:22.478Z,84.36
2022-10-01T01:52:22.477Z,83.64
2022-10-01T01:53:22.465Z,83.54
2022-10-01T01:54:22.437Z,83.88
2022-10-01T01:55:22.449Z,84.29
2022-10-01T01:56:22.451Z,84.29
2022-10-01T01:57:22.397Z,84.50
2022-10-01T01:58:22.386Z,84.39
2022-10-01T01:59:22.394Z,86.85
2022-10-01T02:00:22.362Z,84.91
2022-10-01T02:01:22.421Z,84.29
2022-10-01T02:02:22.413Z,84.19
2022-10-01T02:03:22.368Z,83.88
2022-10-01T02:04:22.316Z,83.88
2022-10-01T02:05:22.326Z,84.12
2022-10-01T02:06:22.304Z,84.95
2022-10-01T02:07:22.307Z,84.33
2022-10-01T02:08:22.311Z,84.44
2022-10-01T02:09:22.287Z,86.58
2022-10-01T02:10:22.280Z,84.84
2022-10-01T02:11:22.252Z,86.04
2022-10-01T02:12:22.244Z,85.31
2022-10-01T02:13:22.252Z,84.80
2022-10-01T02:14:22.235Z,84.29
2022-10-01T02:15:22.234Z,84.09
2022-10-01T02:16:22.228Z,83.78
2022-10-01T02:17:22.212Z,84.19
2022-10-01T02:18:22.209Z,86.65
2022-10-01T02:19:22.181Z,87.16
2022-10-01T02:20:22.159Z,86.04
2022-10-01T02:21:22.144Z,84.15
2022-10-01T02:22:22.148Z,83.64
2022-10-01T02:23:22.184Z,83.68
2022-10-01T02:24:22.125Z,83.88
2022-10-01T02:25:22.137Z,84.80
2022-10-01T02:26:22.097Z,84.60
2022-10-01T02:27:22.088Z,87.47
2022-10-01T02:28:22.179Z,86.20
2022-10-01T02:29:22.096Z,85.07
2022-10-01T02:30:22.092Z,83.84
2022-10-01T02:31:22.124Z,83.74
2022-10-01T02:32:22.057Z,83.88
2022-10-01T02:33:22.028Z,83.98
2022-10-01T02:34:22.075Z,84.70
2022-10-01T02:35:22.010Z,84.80
2022-10-01T02:36:21.997Z,84.19
2022-10-01T02:37:21.995Z,83.88
2022-10-01T02:38:22.020Z,83.88
2022-10-01T02:39:22.043Z,84.09
2022-10-01T02:40:21.978Z,84.70
2022-10-01T02:41:21.963Z,84.60
2022-10-01T02:42:21.956Z,87.16
2022-10-01T02:43:21.949Z,86.61
2022-10-01T02:44:21.936Z,86.30
2022-10-01T02:45:21.921Z,83.84
2022-10-01T02:46:22.053Z,82.71
2022-10-01T02:47:21.883Z,82.92
2022-10-01T02:48:21.878Z,83.23
2022-10-01T02:49:21.885Z,83.54
2022-10-01T02:50:21.865Z,83.78
2022-10-01T02:51:21.863Z,84.09
2022-10-01T02:52:21.854Z,84.50
2022-10-01T02:53:21.958Z,84.80
2022-10-01T02:54:21.814Z,84.80
2022-10-01T02:55:21.828Z,84.91
2022-10-01T02:56:21.812Z,85.01
2022-10-01T02:57:21.849Z,85.31
2022-10-01T02:58:21.829Z,85.15
2022-10-01T02:59:21.783Z,85.36
2022-10-01T03:00:21.755Z,85.56
2022-10-01T03:01:21.806Z,85.66
2022-10-01T03:02:21.820Z,85.77
2022-10-01T03:03:21.762Z,85.87
2022-10-01T03:04:21.741Z,85.77
2022-10-01T03:05:21.702Z,85.87
2022-10-01T03:06:21.699Z,85.97
2022-10-01T03:07:21.709Z,86.18
2022-10-01T03:08:21.676Z,86.48
2022-10-01T03:09:21.706Z,87.20
2022-10-01T03:10:21.674Z,86.90
2022-10-01T03:11:21.685Z,88.94
2022-10-01T03:12:21.675Z,89.72
2022-10-01T03:13:21.646Z,89.72
2022-10-01T03:14:21.625Z,88.24
2022-10-01T03:15:21.612Z,88.65
2022-10-01T03:16:21.663Z,88.56
2022-10-01T03:17:21.594Z,87.22
2022-10-01T03:18:21.601Z,88.35
2022-10-01T03:19:21.564Z,88.51
2022-10-01T03:20:21.577Z,86.98
2022-10-01T03:21:21.556Z,87.59
2022-10-01T03:22:21.578Z,88.51
2022-10-01T03:23:21.522Z,86.88
2022-10-01T03:24:21.519Z,86.57
2022-10-01T03:25:21.527Z,85.85
2022-10-01T03:26:21.510Z,85.89
2022-10-01T03:27:21.483Z,86.10
2022-10-01T03:28:21.611Z,86.30
2022-10-01T03:29:21.480Z,87.12
2022-10-01T03:30:21.487Z,87.88
2022-10-01T03:31:21.459Z,87.77
2022-10-01T03:32:21.492Z,87.77
2022-10-01T03:33:21.417Z,88.80
2022-10-01T03:34:21.418Z,88.70
2022-10-01T03:35:21.418Z,88.90
2022-10-01T03:36:21.393Z,89.42
2022-10-01T03:37:21.421Z,91.36
2022-10-01T03:38:21.389Z,91.36
2022-10-01T03:39:21.380Z,91.97
2022-10-01T03:40:21.376Z,92.69
2022-10-01T03:41:21.362Z,93.00
2022-10-01T03:42:21.354Z,92.28
2022-10-01T03:43:21.333Z,91.36
2022-10-01T03:44:21.335Z,92.90
2022-10-01T03:45:21.350Z,93.88
2022-10-01T03:46:21.304Z,93.57
2022-10-01T03:47:21.298Z,92.85
2022-10-01T03:48:21.244Z,93.77
2022-10-01T03:49:21.317Z,93.77
2022-10-01T03:50:21.282Z,93.57
2022-10-01T03:51:21.265Z,93.57
2022-10-01T03:52:21.319Z,93.67
2022-10-01T03:53:21.241Z,92.75
2022-10-01T03:54:21.219Z,93.06
2022-10-01T03:55:21.226Z,93.16
2022-10-01T03:56:21.213Z,92.55
2022-10-01T03:57:21.204Z,93.57
2022-10-01T03:58:21.206Z,92.65
2022-10-01T03:59:21.168Z,94.59
2022-10-01T04:00:21.187Z,94.70
2022-10-01T04:01:21.187Z,94.39
2022-10-01T04:02:21.326Z,94.08
2022-10-01T04:03:21.153Z,94.39
2022-10-01T04:04:21.164Z,94.96
2022-10-01T04:05:21.151Z,93.12
2022-10-01T04:06:21.124Z,93.63
2022-10-01T04:07:21.124Z,91.78
2022-10-01T04:08:24.351Z,91.58
2022-10-01T04:09:21.070Z,91.17
2022-10-01T04:10:21.069Z,92.30
2022-10-01T04:11:21.089Z,91.78
2022-10-01T04:12:21.028Z,92.81
2022-10-01T04:13:21.049Z,92.50
2022-10-01T04:14:21.014Z,91.48
2022-10-01T04:15:21.036Z,91.17
2022-10-01T04:16:21.186Z,92.71
2022-10-01T04:17:20.980Z,93.63
2022-10-01T04:18:20.972Z,93.79
2022-10-01T04:19:20.978Z,92.05
2022-10-01T04:20:20.963Z,91.54
2022-10-01T04:21:20.952Z,90.97
2022-10-01T04:22:20.957Z,92.19
2022-10-01T04:23:20.869Z,93.07
2022-10-01T04:24:20.927Z,93.28
2022-10-01T04:25:20.901Z,92.71
2022-10-01T04:26:20.921Z,92.60
2022-10-01T04:27:20.905Z,92.71
2022-10-01T04:28:20.949Z,92.10
2022-10-01T04:29:20.920Z,91.78
2022-10-01T04:30:20.858Z,91.07
2022-10-01T04:31:20.894Z,91.17
2022-10-01T04:32:20.844Z,93.63
2022-10-01T04:33:20.836Z,92.87
2022-10-01T04:34:20.812Z,92.36
2022-10-01T04:35:20.884Z,92.97
2022-10-01T04:36:20.824Z,92.05
2022-10-01T04:37:20.797Z,92.77
2022-10-01T04:38:20.801Z,91.95
2022-10-01T04:39:20.795Z,92.25
2022-10-01T04:40:20.754Z,92.87
2022-10-01T04:41:20.724Z,92.77
2022-10-01T04:42:20.745Z,92.46
2022-10-01T04:43:20.717Z,94.20
2022-10-01T04:44:20.702Z,94.40
2022-10-01T04:45:20.712Z,93.69
2022-10-01T04:46:20.797Z,92.21
2022-10-01T04:47:20.711Z,92.83
2022-10-01T04:48:20.677Z,91.80
2022-10-01T04:49:20.680Z,91.91
2022-10-01T04:50:20.655Z,90.06
2022-10-01T04:51:20.641Z,90.37
2022-10-01T04:52:20.734Z,91.74
2022-10-01T04:53:20.620Z,91.60
2022-10-01T04:54:20.630Z,92.42
2022-10-01T04:55:20.650Z,92.77
2022-10-01T04:56:20.590Z,93.28
2022-10-01T04:57:20.574Z,91.39
2022-10-01T04:58:20.549Z,91.60
2022-10-01T04:59:20.548Z,91.13
2022-10-01T05:00:20.575Z,90.62
2022-10-01T05:01:20.586Z,92.25
2022-10-01T05:02:20.559Z,91.64
2022-10-01T05:03:20.532Z,91.33
2022-10-01T05:04:20.531Z,91.64
2022-10-01T05:05:20.495Z,92.05
2022-10-01T05:06:20.476Z,92.10
2022-10-01T05:07:20.465Z,92.77
2022-10-01T05:08:20.511Z,92.87
2022-10-01T05:09:20.396Z,93.18
2022-10-01T05:10:20.458Z,92.19
2022-10-01T05:11:20.396Z,92.30
2022-10-01T05:12:24.453Z,93.52
2022-10-01T05:13:20.412Z,93.32
2022-10-01T05:14:20.416Z,93.32
2022-10-01T05:15:20.413Z,93.12
2022-10-01T05:16:20.449Z,93.22
2022-10-01T05:17:20.365Z,93.52
2022-10-01T05:18:20.339Z,94.24
2022-10-01T05:19:20.290Z,95.32
2022-10-01T05:20:20.323Z,93.59
2022-10-01T05:21:20.320Z,93.89
2022-10-01T05:22:20.322Z,94.30
2022-10-01T05:23:20.304Z,93.48
2022-10-01T05:24:20.294Z,92.93
2022-10-01T05:25:20.285Z,93.85
2022-10-01T05:26:20.270Z,93.65
2022-10-01T05:27:20.285Z,92.21
2022-10-01T05:28:22.634Z,91.80
2022-10-01T05:29:20.250Z,92.42
2022-10-01T05:30:20.213Z,92.11
2022-10-01T05:31:20.212Z,93.24
2022-10-01T05:32:20.263Z,92.21
2022-10-01T05:33:20.295Z,93.03
2022-10-01T05:34:20.146Z,93.13
2022-10-01T05:35:20.140Z,92.01
2022-10-01T05:36:20.196Z,93.85
2022-10-01T05:37:20.153Z,93.13
2022-10-01T05:38:20.178Z,92.83
2022-10-01T05:39:20.180Z,93.03
2022-10-01T05:40:20.105Z,92.62
2022-10-01T05:41:20.055Z,92.21
2022-10-01T05:42:20.096Z,94.36
2022-10-01T05:43:20.105Z,93.95
2022-10-01T05:44:20.055Z,94.26
2022-10-01T05:45:20.020Z,93.54
2022-10-01T05:46:20.123Z,94.26
2022-10-01T05:47:20.028Z,94.21
2022-10-01T05:48:19.989Z,94.15
2022-10-01T05:49:20.021Z,95.48
2022-10-01T05:50:19.991Z,95.18
2022-10-01T05:51:19.952Z,95.54
2022-10-01T05:52:19.957Z,95.07
2022-10-01T05:53:19.946Z,95.38
2022-10-01T05:54:19.983Z,94.77
2022-10-01T05:55:19.981Z,95.89
2022-10-01T05:56:19.901Z,95.59
2022-10-01T05:57:19.970Z,95.28
2022-10-01T05:58:19.924Z,95.89
2022-10-01T05:59:19.885Z,95.59
2022-10-01T06:00:19.859Z,93.95
2022-10-01T06:01:19.859Z,94.46
2022-10-01T06:02:19.986Z,95.38
2022-10-01T06:03:19.845Z,96.10
2022-10-01T06:04:19.826Z,95.69
2022-10-01T06:05:19.856Z,94.56
2022-10-01T06:06:19.829Z,94.87
2022-10-01T06:07:19.797Z,94.87
2022-10-01T06:08:19.794Z,94.67
2022-10-01T06:09:19.780Z,94.15
2022-10-01T06:10:19.800Z,96.30
2022-10-01T06:11:19.796Z,96.41
2022-10-01T06:12:20.116Z,95.38
2022-10-01T06:13:19.733Z,95.79
2022-10-01T06:14:19.749Z,95.48
2022-10-01T06:15:19.716Z,95.59
2022-10-01T06:16:19.818Z,94.87
2022-10-01T06:17:19.699Z,94.56
2022-10-01T06:18:19.686Z,94.46
2022-10-01T06:19:19.685Z,94.15
2022-10-01T06:20:19.662Z,94.62
2022-10-01T06:21:19.675Z,93.91
2022-10-01T06:22:19.644Z,93.80
2022-10-01T06:23:19.635Z,93.60
2022-10-01T06:24:19.640Z,93.44
2022-10-01T06:25:19.606Z,93.85
2022-10-01T06:26:19.634Z,94.26
2022-10-01T06:27:19.621Z,93.95
2022-10-01T06:28:19.689Z,95.07
2022-10-01T06:29:19.577Z,94.97
2022-10-01T06:30:19.561Z,94.87
2022-10-01T06:31:19.640Z,94.77
2022-10-01T06:32:19.579Z,95.69
2022-10-01T06:33:19.587Z,95.75
2022-10-01T06:34:19.546Z,95.44
2022-10-01T06:35:19.519Z,94.73
2022-10-01T06:36:19.532Z,93.70
2022-10-01T06:37:19.527Z,93.29
2022-10-01T06:38:19.480Z,94.11
2022-10-01T06:39:19.515Z,95.44
2022-10-01T06:40:19.866Z,95.44
2022-10-01T06:41:19.499Z,93.91
2022-10-01T06:42:19.456Z,94.01
2022-10-01T06:43:19.455Z,94.73
2022-10-01T06:44:19.442Z,95.34
2022-10-01T06:45:19.425Z,95.23
2022-10-01T06:46:19.503Z,94.82
2022-10-01T06:47:19.401Z,94.73
2022-10-01T06:48:19.387Z,93.80
2022-10-01T06:49:19.393Z,93.09
2022-10-01T06:50:19.382Z,93.74
2022-10-01T06:51:19.382Z,96.00
2022-10-01T06:52:19.370Z,96.20
2022-10-01T06:53:19.370Z,95.79
2022-10-01T06:54:19.346Z,97.28
2022-10-01T06:55:19.338Z,96.56
2022-10-01T06:56:19.326Z,95.54
2022-10-01T06:57:19.323Z,95.34
2022-10-01T06:58:19.311Z,96.26
2022-10-01T06:59:19.278Z,95.64
2022-10-01T07:00:19.276Z,95.13
2022-10-01T07:01:19.302Z,95.44
2022-10-01T07:02:19.261Z,96.56
2022-10-01T07:03:19.232Z,95.85
2022-10-01T07:04:19.257Z,95.95
2022-10-01T07:05:19.218Z,97.28
2022-10-01T07:06:19.221Z,96.46
2022-10-01T07:07:19.224Z,95.95
2022-10-01T07:08:19.183Z,96.26
2022-10-01T07:09:19.204Z,95.95
2022-10-01T07:10:19.167Z,95.75
2022-10-01T07:11:19.169Z,96.46
2022-10-01T07:12:19.170Z,96.15
2022-10-01T07:13:19.169Z,94.89
2022-10-01T07:14:19.189Z,94.82
2022-10-01T07:15:19.109Z,95.23
2022-10-01T07:16:19.130Z,94.62
2022-10-01T07:17:19.105Z,94.62
2022-10-01T07:18:19.078Z,96.05
2022-10-01T07:19:19.118Z,96.67
2022-10-01T07:20:19.047Z,97.38
2022-10-01T07:21:19.062Z,95.85
2022-10-01T07:22:19.038Z,95.03
2022-10-01T07:23:19.052Z,95.54
2022-10-01T07:24:19.032Z,95.09
2022-10-01T07:25:19.015Z,95.23
2022-10-01T07:26:19.005Z,95.13
2022-10-01T07:27:18.985Z,96.31
2022-10-01T07:28:19.144Z,95.80
2022-10-01T07:29:18.961Z,96.15
2022-10-01T07:30:18.953Z,97.13
2022-10-01T07:31:19.049Z,96.31
2022-10-01T07:32:18.946Z,96.31
2022-10-01T07:33:18.942Z,96.11
2022-10-01T07:34:18.920Z,96.11
2022-10-01T07:35:18.934Z,96.21
2022-10-01T07:36:18.933Z,96.51
2022-10-01T07:37:18.905Z,96.21
2022-10-01T07:38:18.901Z,96.72
2022-10-01T07:39:18.895Z,96.01
2022-10-01T07:40:18.864Z,96.31
2022-10-01T07:41:18.886Z,96.01
2022-10-01T07:42:18.832Z,94.89
2022-10-01T07:43:18.836Z,95.19
2022-10-01T07:44:18.849Z,95.39
2022-10-01T07:45:18.820Z,94.64
2022-10-01T07:46:18.844Z,93.92
2022-10-01T07:47:18.811Z,93.31
2022-10-01T07:48:18.783Z,93.62
2022-10-01T07:49:18.782Z,92.80
2022-10-01T07:50:18.784Z,92.90
2022-10-01T07:51:18.753Z,92.49
2022-10-01T07:52:18.748Z,92.29
2022-10-01T07:53:18.747Z,92.69
2022-10-01T07:54:18.713Z,93.71
2022-10-01T07:55:18.764Z,93.82
2022-10-01T07:56:18.692Z,93.92
2022-10-01T07:57:18.684Z,93.82
2022-10-01T07:58:18.673Z,93.41
2022-10-01T07:59:18.672Z,92.90
2022-10-01T08:00:18.665Z,93.51
2022-10-01T08:01:18.756Z,93.92
2022-10-01T08:02:18.677Z,93.98
2022-10-01T08:03:18.622Z,93.88
2022-10-01T08:04:18.632Z,93.77
2022-10-01T08:05:18.622Z,93.88
2022-10-01T08:06:23.261Z,93.06
2022-10-01T08:07:18.622Z,93.57
2022-10-01T08:08:18.575Z,93.57
2022-10-01T08:09:18.610Z,92.96
2022-10-01T08:10:18.571Z,94.18
2022-10-01T08:11:18.567Z,94.08
2022-10-01T08:12:18.555Z,92.96
2022-10-01T08:13:18.524Z,93.47
2022-10-01T08:14:18.514Z,93.06
2022-10-01T08:15:18.586Z,93.77
2022-10-01T08:16:18.613Z,93.98
2022-10-01T08:17:18.525Z,92.86
2022-10-01T08:18:18.465Z,91.63
2022-10-01T08:19:18.471Z,92.55
2022-10-01T08:20:18.483Z,92.14
2022-10-01T08:21:18.441Z,92.24
2022-10-01T08:22:18.479Z,92.14
2022-10-01T08:23:18.425Z,91.63
2022-10-01T08:24:18.411Z,92.35
2022-10-01T08:25:18.414Z,92.76
2022-10-01T08:26:18.432Z,94.18
2022-10-01T08:27:18.372Z,92.96
2022-10-01T08:28:18.488Z,91.74
2022-10-01T08:29:18.355Z,91.49
2022-10-01T08:30:18.372Z,91.53
2022-10-01T08:31:18.400Z,93.67
2022-10-01T08:32:18.397Z,94.43
2022-10-01T08:33:18.351Z,93.51
2022-10-01T08:34:18.295Z,92.80
2022-10-01T08:35:18.302Z,92.59
2022-10-01T08:36:18.316Z,93.82
2022-10-01T08:37:18.291Z,93.82
2022-10-01T08:38:18.285Z,93.00
2022-10-01T08:39:18.267Z,93.62
2022-10-01T08:40:18.251Z,93.47
2022-10-01T08:41:22.503Z,93.57
2022-10-01T08:42:18.260Z,94.38
2022-10-01T08:43:18.224Z,94.79
2022-10-01T08:44:18.207Z,94.70
2022-10-01T08:45:18.200Z,93.26
2022-10-01T08:46:18.321Z,93.67
2022-10-01T08:47:18.198Z,93.57
2022-10-01T08:48:18.159Z,92.76
2022-10-01T08:49:18.189Z,92.76
2022-10-01T08:50:18.206Z,93.37
2022-10-01T08:51:18.150Z,93.32
2022-10-01T08:52:18.123Z,91.89
2022-10-01T08:53:18.126Z,92.61
2022-10-01T08:54:18.083Z,92.81
2022-10-01T08:55:18.097Z,92.24
2022-10-01T08:56:18.089Z,92.76
2022-10-01T08:57:18.069Z,92.96
2022-10-01T08:58:18.107Z,93.26
2022-10-01T08:59:18.036Z,91.94
2022-10-01T09:00:18.057Z,92.14
2022-10-01T09:01:18.090Z,92.24
2022-10-01T09:02:18.019Z,93.32
2022-10-01T09:03:18.017Z,93.63
2022-10-01T09:04:18.042Z,92.50
2022-10-01T09:05:18.014Z,92.71
2022-10-01T09:06:17.994Z,92.00
2022-10-01T09:07:17.985Z,92.00
2022-10-01T09:08:17.969Z,91.35
2022-10-01T09:09:17.941Z,91.85
2022-10-01T09:10:17.918Z,91.96
2022-10-01T09:11:17.925Z,90.94
2022-10-01T09:12:17.912Z,89.92
2022-10-01T09:13:17.908Z,90.01
2022-10-01T09:14:17.904Z,91.14
2022-10-01T09:15:17.878Z,90.73
2022-10-01T09:16:17.957Z,91.03
2022-10-01T09:17:17.887Z,92.36
2022-10-01T09:18:17.890Z,90.53
2022-10-01T09:19:17.939Z,90.63
2022-10-01T09:20:17.853Z,90.73
2022-10-01T09:21:17.811Z,90.73
2022-10-01T09:22:17.787Z,91.35
2022-10-01T09:23:17.841Z,90.32
2022-10-01T09:24:17.774Z,89.71
2022-10-01T09:25:17.814Z,89.92
2022-10-01T09:26:19.580Z,91.65
2022-10-01T09:27:17.755Z,91.65
2022-10-01T09:28:17.793Z,91.65
2022-10-01T09:29:17.723Z,90.99
2022-10-01T09:30:17.758Z,90.28
2022-10-01T09:31:17.766Z,91.09
2022-10-01T09:32:17.683Z,90.28
2022-10-01T09:33:17.700Z,89.97
2022-10-01T09:34:17.685Z,90.89
2022-10-01T09:35:17.663Z,89.67
2022-10-01T09:36:17.679Z,89.97
2022-10-01T09:37:17.637Z,89.77
2022-10-01T09:38:17.673Z,90.18
2022-10-01T09:39:17.650Z,89.77
2022-10-01T09:40:17.626Z,89.47
2022-10-01T09:41:17.610Z,89.47
2022-10-01T09:42:17.836Z,89.87
2022-10-01T09:43:17.610Z,90.89
2022-10-01T09:44:18.842Z,90.99
2022-10-01T09:45:17.559Z,90.99
2022-10-01T09:46:17.749Z,89.26
2022-10-01T09:47:17.574Z,89.67
2022-10-01T09:48:17.554Z,89.77
2022-10-01T09:49:17.511Z,89.87
2022-10-01T09:50:17.523Z,89.36
2022-10-01T09:51:17.505Z,89.57
2022-10-01T09:52:17.497Z,89.67
2022-10-01T09:53:17.543Z,90.48
2022-10-01T09:54:17.463Z,90.38
2022-10-01T09:55:17.467Z,89.97
2022-10-01T09:56:17.450Z,89.26
2022-10-01T09:57:17.432Z,89.42
2022-10-01T09:58:17.440Z,90.03
2022-10-01T09:59:17.401Z,89.94
2022-10-01T10:00:17.418Z,89.01
2022-10-01T10:01:17.402Z,88.92
2022-10-01T10:02:17.705Z,90.14
2022-10-01T10:03:17.624Z,91.26
2022-10-01T10:04:20.028Z,90.44
2022-10-01T10:05:17.350Z,90.85
2022-10-01T10:06:17.363Z,89.63
2022-10-01T10:07:17.317Z,88.40
2022-10-01T10:08:17.325Z,89.42
2022-10-01T10:09:17.306Z,89.32
2022-10-01T10:10:18.613Z,89.83
2022-10-01T10:11:17.284Z,90.95
2022-10-01T10:12:17.265Z,89.83
2022-10-01T10:13:17.304Z,90.09
2022-10-01T10:14:17.247Z,88.98
2022-10-01T10:15:17.249Z,90.09
2022-10-01T10:16:17.292Z,88.98
2022-10-01T10:17:17.243Z,88.46
2022-10-01T10:18:21.529Z,88.06
2022-10-01T10:19:17.223Z,87.75
2022-10-01T10:20:17.190Z,88.16
2022-10-01T10:21:17.177Z,87.85
2022-10-01T10:22:17.180Z,88.67
2022-10-01T10:23:17.198Z,88.87
2022-10-01T10:24:17.187Z,89.38
2022-10-01T10:25:17.136Z,89.07
2022-10-01T10:26:17.137Z,87.24
2022-10-01T10:27:17.158Z,87.24
2022-10-01T10:28:17.221Z,87.35
2022-10-01T10:29:17.137Z,88.06
2022-10-01T10:30:17.154Z,87.96
2022-10-01T10:31:17.128Z,88.06
2022-10-01T10:32:17.113Z,87.51
2022-10-01T10:33:17.059Z,87.81
2022-10-01T10:34:17.068Z,88.63
2022-10-01T10:35:17.038Z,88.83
2022-10-01T10:36:17.059Z,88.42
2022-10-01T10:37:17.005Z,87.92
2022-10-01T10:38:17.056Z,87.71
2022-10-01T10:39:16.982Z,86.69
2022-10-01T10:40:17.026Z,87.30
2022-10-01T10:41:16.988Z,87.51
2022-10-01T10:42:16.981Z,87.98
2022-10-01T10:43:16.938Z,87.37
2022-10-01T10:44:16.947Z,87.67
2022-10-01T10:45:16.983Z,87.26
2022-10-01T10:46:16.950Z,86.76
2022-10-01T10:47:16.906Z,87.47
2022-10-01T10:48:16.924Z,86.86
2022-10-01T10:49:16.977Z,86.25
2022-10-01T10:50:16.896Z,87.47
2022-10-01T10:51:16.885Z,87.47
2022-10-01T10:52:16.866Z,87.57
2022-10-01T10:53:16.848Z,88.59
2022-10-01T10:54:16.883Z,88.28
2022-10-01T10:55:16.823Z,89.61
2022-10-01T10:56:16.811Z,89.61
2022-10-01T10:57:17.564Z,89.70
2022-10-01T10:58:16.792Z,89.61
2022-10-01T10:59:16.771Z,90.01
2022-10-01T11:00:16.828Z,90.52
2022-10-01T11:01:16.833Z,90.42
2022-10-01T11:02:16.808Z,90.72
2022-10-01T11:03:16.733Z,90.72
2022-10-01T11:04:16.721Z,90.52
2022-10-01T11:05:16.714Z,89.61
2022-10-01T11:06:16.735Z,90.01
2022-10-01T11:07:16.751Z,90.52
2022-10-01T11:08:17.895Z,90.07
2022-10-01T11:09:16.680Z,89.26
2022-10-01T11:10:16.670Z,89.46
2022-10-01T11:11:16.693Z,88.65
2022-10-01T11:12:16.743Z,89.05
2022-10-01T11:13:16.653Z,89.31
2022-10-01T11:14:21.363Z,89.62
2022-10-01T11:15:16.611Z,88.81
2022-10-01T11:16:16.753Z,87.38
2022-10-01T11:17:16.599Z,87.79
2022-10-01T11:18:16.636Z,88.60
2022-10-01T11:19:16.563Z,87.99
2022-10-01T11:20:20.665Z,87.45
2022-10-01T11:21:16.552Z,87.65
2022-10-01T11:22:16.535Z,87.20
2022-10-01T11:23:16.556Z,87.30
2022-10-01T11:24:16.534Z,86.29
2022-10-01T11:25:16.525Z,85.38
2022-10-01T11:26:16.541Z,84.66
2022-10-01T11:27:16.483Z,85.68
2022-10-01T11:28:16.630Z,85.58
2022-10-01T11:29:16.504Z,85.78
2022-10-01T11:30:16.546Z,85.47
2022-10-01T11:31:16.668Z,85.64
2022-10-01T11:32:16.443Z,84.93
2022-10-01T11:33:16.444Z,85.13
2022-10-01T11:34:16.419Z,84.83
2022-10-01T11:35:16.424Z,84.32
2022-10-01T11:36:16.407Z,84.32
2022-10-01T11:37:16.374Z,83.71
2022-10-01T11:38:16.412Z,84.18
2022-10-01T11:39:16.354Z,82.86
2022-10-01T11:40:16.353Z,82.86
2022-10-01T11:41:16.423Z,83.03
2022-10-01T11:42:16.333Z,83.73
2022-10-01T11:43:16.341Z,82.07
2022-10-01T11:44:16.355Z,81.37
2022-10-01T11:45:16.311Z,81.37
2022-10-01T11:46:16.366Z,82.17
2022-10-01T11:47:16.295Z,81.06
2022-10-01T11:48:16.291Z,81.87
2022-10-01T11:49:16.251Z,81.43
2022-10-01T11:50:16.280Z,80.52
2022-10-01T11:51:16.260Z,80.76
2022-10-01T11:52:16.273Z,81.16
2022-10-01T11:53:16.270Z,81.16
2022-10-01T11:54:16.265Z,82.38
2022-10-01T11:55:16.263Z,82.17
2022-10-01T11:56:16.200Z,82.58
2022-10-01T11:57:16.182Z,81.32
2022-10-01T11:58:16.211Z,80.21
2022-10-01T11:59:16.155Z,80.41
2022-10-01T12:00:16.168Z,80.92
2022-10-01T12:01:16.151Z,80.62
2022-10-01T12:02:16.240Z,80.58
2022-10-01T12:03:16.107Z,79.87
2022-10-01T12:04:16.126Z,80.07
2022-10-01T12:05:16.170Z,80.27
2022-10-01T12:06:16.096Z,80.27
2022-10-01T12:07:16.070Z,80.18
2022-10-01T12:08:16.082Z,80.94
2022-10-01T12:09:16.055Z,80.44
2022-10-01T12:10:16.040Z,79.53
2022-10-01T12:11:16.055Z,79.53
2022-10-01T12:12:16.018Z,79.59
2022-10-01T12:13:16.037Z,79.90
2022-10-01T12:14:16.025Z,78.92
2022-10-01T12:15:15.992Z,79.43
2022-10-01T12:16:16.187Z,79.73
2022-10-01T12:17:15.986Z,80.13
2022-10-01T12:18:15.977Z,80.44
2022-10-01T12:19:15.955Z,79.69
2022-10-01T12:20:15.961Z,79.49
2022-10-01T12:21:15.951Z,79.39
2022-10-01T12:22:15.940Z,78.88
2022-10-01T12:23:15.918Z,78.28
2022-10-01T12:24:15.929Z,78.72
2022-10-01T12:25:15.898Z,78.92
2022-10-01T12:26:15.915Z,79.53
2022-10-01T12:27:15.888Z,79.53
2022-10-01T12:28:15.932Z,79.33
2022-10-01T12:29:15.846Z,78.78
2022-10-01T12:30:15.851Z,78.92
2022-10-01T12:31:15.887Z,79.63
2022-10-01T12:32:15.872Z,80.24
2022-10-01T12:33:15.842Z,79.43
2022-10-01T12:34:15.802Z,78.82
2022-10-01T12:35:15.772Z,78.62
2022-10-01T12:36:15.797Z,78.72
2022-10-01T12:37:15.774Z,78.62
2022-10-01T12:38:15.781Z,78.88
2022-10-01T12:39:15.753Z,78.88
2022-10-01T12:40:15.740Z,78.58
2022-10-01T12:41:15.722Z,78.28
2022-10-01T12:42:15.749Z,78.17
2022-10-01T12:43:15.721Z,77.37
2022-10-01T12:44:15.738Z,77.43
2022-10-01T12:45:15.735Z,77.77
2022-10-01T12:46:15.749Z,77.73
2022-10-01T12:47:17.430Z,77.43
2022-10-01T12:48:15.647Z,76.93
2022-10-01T12:49:15.654Z,76.93
2022-10-01T12:50:15.673Z,77.13
2022-10-01T12:51:15.620Z,77.23
2022-10-01T12:52:15.619Z,76.72